sensor_id;sensor_type;location;lat;lon;timestamp;temperature;humidity
24176;DHT22;12324;48.146;11.502;2023-12-22T00:29:25;1.50;99.90
24176;DHT22;12324;48.146;11.502;2023-12-22T00:31:54;1.40;99.90
24176;DHT22;12324;48.146;11.502;2023-12-22T00:39:16;1.30;99.90
24176;DHT22;12324;48.146;11.502;2023-12-22T00:41:43;1.50;99.90
24176;DHT22;12324;48.146;11.502;2023-12-22T00:44:10;1.70;99.90
24176;DHT22;12324;48.146;11.502;2023-12-22T00:46:37;1.60;99.90
24176;DHT22;12324;48.146;11.502;2023-12-22T00:49:03;1.70;99.90
24176;DHT22;12324;48.146;11.502;2023-12-22T00:51:30;1.60;99.90
24176;DHT22;12324;48.146;11.502;2023-12-22T00:53:57;1.60;99.90
24176;DHT22;12324;48.146;11.502;2023-12-22T00:56:24;1.70;99.90
24176;DHT22;12324;48.146;11.502;2023-12-22T00:58:50;1.70;99.90
24176;DHT22;12324;48.146;11.502;2023-12-22T01:01:28;1.70;99.90
24176;DHT22;12324;48.146;11.502;2023-12-22T01:03:55;1.70;99.90
24176;DHT22;12324;48.146;11.502;2023-12-22T01:06:21;1.70;99.90
24176;DHT22;12324;48.146;11.502;2023-12-22T01:08:53;1.80;99.90
24176;DHT22;12324;48.146;11.502;2023-12-22T01:11:20;1.90;99.90
24176;DHT22;12324;48.146;11.502;2023-12-22T01:13:46;1.90;99.90
24176;DHT22;12324;48.146;11.502;2023-12-22T01:16:13;1.90;99.90
24176;DHT22;12324;48.146;11.502;2023-12-22T01:18:42;1.90;99.90
24176;DHT22;12324;48.146;11.502;2023-12-22T01:21:09;2.00;99.90
24176;DHT22;12324;48.146;11.502;2023-12-22T01:23:36;2.00;99.90
24176;DHT22;12324;48.146;11.502;2023-12-22T01:26:03;2.00;99.90
24176;DHT22;12324;48.146;11.502;2023-12-22T01:33:24;2.00;99.90
24176;DHT22;12324;48.146;11.502;2023-12-22T01:35:51;1.90;99.90
24176;DHT22;12324;48.146;11.502;2023-12-22T01:38:18;1.80;99.90
24176;DHT22;12324;48.146;11.502;2023-12-22T01:40:45;1.80;99.90
24176;DHT22;12324;48.146;11.502;2023-12-22T01:43:11;1.70;99.90
24176;DHT22;12324;48.146;11.502;2023-12-22T01:45:40;1.70;99.90
24176;DHT22;12324;48.146;11.502;2023-12-22T01:48:10;1.60;99.90
24176;DHT22;12324;48.146;11.502;2023-12-22T01:50:37;1.40;99.90
24176;DHT22;12324;48.146;11.502;2023-12-22T01:53:05;1.30;99.90
24176;DHT22;12324;48.146;11.502;2023-12-22T01:55:33;1.30;99.90
24176;DHT22;12324;48.146;11.502;2023-12-22T01:58:00;1.30;99.90
24176;DHT22;12324;48.146;11.502;2023-12-22T02:00:27;1.30;99.90
24176;DHT22;12324;48.146;11.502;2023-12-22T02:02:54;1.20;99.90
24176;DHT22;12324;48.146;11.502;2023-12-22T02:05:20;1.20;99.90
24176;DHT22;12324;48.146;11.502;2023-12-22T02:07:47;1.10;99.90
24176;DHT22;12324;48.146;11.502;2023-12-22T02:10:15;1.00;99.90
24176;DHT22;12324;48.146;11.502;2023-12-22T02:12:42;1.10;99.90
24176;DHT22;12324;48.146;11.502;2023-12-22T02:15:09;1.10;99.90
24176;DHT22;12324;48.146;11.502;2023-12-22T02:17:49;1.10;99.90
24176;DHT22;12324;48.146;11.502;2023-12-22T02:20:18;1.00;99.90
24176;DHT22;12324;48.146;11.502;2023-12-22T02:22:51;1.00;99.90
24176;DHT22;12324;48.146;11.502;2023-12-22T02:25:19;0.80;99.90
24176;DHT22;12324;48.146;11.502;2023-12-22T02:28:02;0.80;99.90
24176;DHT22;12324;48.146;11.502;2023-12-22T02:30:43;0.90;99.90
24176;DHT22;12324;48.146;11.502;2023-12-22T02:33:12;0.80;99.90
24176;DHT22;12324;48.146;11.502;2023-12-22T02:35:42;0.90;99.90
24176;DHT22;12324;48.146;11.502;2023-12-22T02:38:12;0.90;99.90
24176;DHT22;12324;48.146;11.502;2023-12-22T02:40:39;1.00;99.90
24176;DHT22;12324;48.146;11.502;2023-12-22T02:43:07;1.00;99.90
24176;DHT22;12324;48.146;11.502;2023-12-22T02:45:33;1.00;99.90
24176;DHT22;12324;48.146;11.502;2023-12-22T02:48:01;1.00;99.90
24176;DHT22;12324;48.146;11.502;2023-12-22T02:50:28;1.10;99.90
24176;DHT22;12324;48.146;11.502;2023-12-22T02:52:54;1.10;99.90
24176;DHT22;12324;48.146;11.502;2023-12-22T02:55:21;1.20;99.90
24176;DHT22;12324;48.146;11.502;2023-12-22T02:57:48;1.20;99.90
24176;DHT22;12324;48.146;11.502;2023-12-22T03:00:15;1.10;99.90
24176;DHT22;12324;48.146;11.502;2023-12-22T03:02:42;1.20;99.90
24176;DHT22;12324;48.146;11.502;2023-12-22T03:05:09;1.20;99.90
24176;DHT22;12324;48.146;11.502;2023-12-22T03:07:35;1.30;99.90
24176;DHT22;12324;48.146;11.502;2023-12-22T03:10:02;1.30;99.90
24176;DHT22;12324;48.146;11.502;2023-12-22T03:12:29;1.30;99.90
24176;DHT22;12324;48.146;11.502;2023-12-22T03:14:56;1.50;99.90
24176;DHT22;12324;48.146;11.502;2023-12-22T03:17:23;1.40;99.90
24176;DHT22;12324;48.146;11.502;2023-12-22T03:19:50;1.40;99.90
24176;DHT22;12324;48.146;11.502;2023-12-22T03:22:17;1.40;99.90
24176;DHT22;12324;48.146;11.502;2023-12-22T03:24:43;1.40;99.90
24176;DHT22;12324;48.146;11.502;2023-12-22T03:27:11;1.50;99.90
24176;DHT22;12324;48.146;11.502;2023-12-22T03:29:43;1.50;99.90
24176;DHT22;12324;48.146;11.502;2023-12-22T03:32:10;1.50;99.90
24176;DHT22;12324;48.146;11.502;2023-12-22T03:34:36;1.60;99.90
24176;DHT22;12324;48.146;11.502;2023-12-22T03:37:03;1.60;99.90
24176;DHT22;12324;48.146;11.502;2023-12-22T03:39:30;1.70;99.90
24176;DHT22;12324;48.146;11.502;2023-12-22T03:41:57;1.70;99.90
24176;DHT22;12324;48.146;11.502;2023-12-22T03:44:24;1.80;99.90
24176;DHT22;12324;48.146;11.502;2023-12-22T03:46:52;1.80;99.90
24176;DHT22;12324;48.146;11.502;2023-12-22T03:49:19;1.90;99.90
24176;DHT22;12324;48.146;11.502;2023-12-22T03:51:46;2.00;99.90
24176;DHT22;12324;48.146;11.502;2023-12-22T03:54:13;2.00;99.90
24176;DHT22;12324;48.146;11.502;2023-12-22T03:56:42;2.10;99.90
24176;DHT22;12324;48.146;11.502;2023-12-22T03:59:09;2.20;99.90
24176;DHT22;12324;48.146;11.502;2023-12-22T04:06:30;2.50;99.90
24176;DHT22;12324;48.146;11.502;2023-12-22T04:08:57;3.30;99.90
24176;DHT22;12324;48.146;11.502;2023-12-22T04:11:23;3.50;99.90
24176;DHT22;12324;48.146;11.502;2023-12-22T04:13:50;3.60;99.90
24176;DHT22;12324;48.146;11.502;2023-12-22T04:16:17;3.60;99.90
24176;DHT22;12324;48.146;11.502;2023-12-22T04:18:44;3.60;99.90
24176;DHT22;12324;48.146;11.502;2023-12-22T04:30:59;3.70;99.90
24176;DHT22;12324;48.146;11.502;2023-12-22T04:33:26;3.90;99.90
24176;DHT22;12324;48.146;11.502;2023-12-22T04:35:53;3.90;99.90
24176;DHT22;12324;48.146;11.502;2023-12-22T04:38:19;4.00;99.90
24176;DHT22;12324;48.146;11.502;2023-12-22T04:40:46;4.10;99.90
24176;DHT22;12324;48.146;11.502;2023-12-22T04:43:13;4.10;99.90
24176;DHT22;12324;48.146;11.502;2023-12-22T04:45:40;4.10;99.90
24176;DHT22;12324;48.146;11.502;2023-12-22T04:48:07;4.10;99.90
24176;DHT22;12324;48.146;11.502;2023-12-22T04:50:33;4.10;99.90
24176;DHT22;12324;48.146;11.502;2023-12-22T04:53:00;4.20;99.90
24176;DHT22;12324;48.146;11.502;2023-12-22T04:55:27;4.20;99.90
24176;DHT22;12324;48.146;11.502;2023-12-22T04:57:54;4.30;99.90
24176;DHT22;12324;48.146;11.502;2023-12-22T05:00:21;4.30;99.90
24176;DHT22;12324;48.146;11.502;2023-12-22T05:02:47;4.40;99.90
24176;DHT22;12324;48.146;11.502;2023-12-22T05:05:14;4.50;99.90
24176;DHT22;12324;48.146;11.502;2023-12-22T05:07:41;4.40;99.90
24176;DHT22;12324;48.146;11.502;2023-12-22T05:15:03;4.50;99.90
24176;DHT22;12324;48.146;11.502;2023-12-22T05:17:29;4.70;99.90
24176;DHT22;12324;48.146;11.502;2023-12-22T05:19:56;4.70;99.90
24176;DHT22;12324;48.146;11.502;2023-12-22T05:22:23;4.70;99.90
24176;DHT22;12324;48.146;11.502;2023-12-22T05:24:50;4.70;99.90
24176;DHT22;12324;48.146;11.502;2023-12-22T05:27:17;4.80;99.90
24176;DHT22;12324;48.146;11.502;2023-12-22T05:29:44;4.80;99.90
24176;DHT22;12324;48.146;11.502;2023-12-22T05:32:11;4.80;99.90
24176;DHT22;12324;48.146;11.502;2023-12-22T05:34:38;4.90;99.90
24176;DHT22;12324;48.146;11.502;2023-12-22T05:37:05;4.90;99.90
24176;DHT22;12324;48.146;11.502;2023-12-22T05:39:32;5.10;99.90
24176;DHT22;12324;48.146;11.502;2023-12-22T05:41:58;5.10;99.90
24176;DHT22;12324;48.146;11.502;2023-12-22T05:44:25;5.20;99.90
24176;DHT22;12324;48.146;11.502;2023-12-22T05:46:56;5.20;99.90
24176;DHT22;12324;48.146;11.502;2023-12-22T05:49:23;5.10;99.90
24176;DHT22;12324;48.146;11.502;2023-12-22T05:51:50;4.90;99.90
24176;DHT22;12324;48.146;11.502;2023-12-22T05:54:17;4.70;99.90
24176;DHT22;12324;48.146;11.502;2023-12-22T05:56:46;4.60;99.90
24176;DHT22;12324;48.146;11.502;2023-12-22T05:59:12;4.50;99.90
24176;DHT22;12324;48.146;11.502;2023-12-22T06:01:39;4.50;99.90
24176;DHT22;12324;48.146;11.502;2023-12-22T06:04:06;4.40;99.90
24176;DHT22;12324;48.146;11.502;2023-12-22T06:06:32;4.40;99.90
24176;DHT22;12324;48.146;11.502;2023-12-22T06:08:59;4.40;99.90
24176;DHT22;12324;48.146;11.502;2023-12-22T06:11:26;4.30;99.90
24176;DHT22;12324;48.146;11.502;2023-12-22T06:13:53;4.30;99.90
24176;DHT22;12324;48.146;11.502;2023-12-22T06:16:19;4.20;99.90
24176;DHT22;12324;48.146;11.502;2023-12-22T06:18:47;4.20;99.90
24176;DHT22;12324;48.146;11.502;2023-12-22T06:21:13;4.10;99.90
24176;DHT22;12324;48.146;11.502;2023-12-22T06:23:41;4.10;99.90
24176;DHT22;12324;48.146;11.502;2023-12-22T06:26:09;4.10;99.90
24176;DHT22;12324;48.146;11.502;2023-12-22T06:28:37;4.20;99.90
24176;DHT22;12324;48.146;11.502;2023-12-22T06:31:07;4.30;99.90
24176;DHT22;12324;48.146;11.502;2023-12-22T06:33:34;4.30;99.90
24176;DHT22;12324;48.146;11.502;2023-12-22T06:36:00;4.30;99.90
24176;DHT22;12324;48.146;11.502;2023-12-22T06:38:27;4.30;99.90
24176;DHT22;12324;48.146;11.502;2023-12-22T06:40:54;4.30;99.90
24176;DHT22;12324;48.146;11.502;2023-12-22T06:43:22;4.50;99.90
24176;DHT22;12324;48.146;11.502;2023-12-22T06:45:49;4.60;99.90
24176;DHT22;12324;48.146;11.502;2023-12-22T06:48:16;4.70;99.90
24176;DHT22;12324;48.146;11.502;2023-12-22T06:50:43;4.80;99.90
24176;DHT22;12324;48.146;11.502;2023-12-22T06:53:12;5.00;99.90
24176;DHT22;12324;48.146;11.502;2023-12-22T06:55:51;5.00;99.90
24176;DHT22;12324;48.146;11.502;2023-12-22T06:58:18;5.20;99.90
24176;DHT22;12324;48.146;11.502;2023-12-22T07:00:48;5.10;99.90
24176;DHT22;12324;48.146;11.502;2023-12-22T07:03:15;5.20;99.90
24176;DHT22;12324;48.146;11.502;2023-12-22T07:05:43;5.20;99.90
24176;DHT22;12324;48.146;11.502;2023-12-22T07:08:11;5.30;99.90
24176;DHT22;12324;48.146;11.502;2023-12-22T07:10:38;5.30;99.90
24176;DHT22;12324;48.146;11.502;2023-12-22T07:13:05;5.30;99.90
24176;DHT22;12324;48.146;11.502;2023-12-22T07:15:32;5.40;99.90
24176;DHT22;12324;48.146;11.502;2023-12-22T07:17:59;5.30;99.90
24176;DHT22;12324;48.146;11.502;2023-12-22T07:20:26;5.30;99.90
24176;DHT22;12324;48.146;11.502;2023-12-22T07:22:53;5.30;99.90
24176;DHT22;12324;48.146;11.502;2023-12-22T07:25:22;5.20;99.90
24176;DHT22;12324;48.146;11.502;2023-12-22T07:27:48;4.50;99.90
24176;DHT22;12324;48.146;11.502;2023-12-22T07:30:16;4.80;99.90
24176;DHT22;12324;48.146;11.502;2023-12-22T07:32:44;4.60;99.90
24176;DHT22;12324;48.146;11.502;2023-12-22T07:35:14;4.50;99.90
24176;DHT22;12324;48.146;11.502;2023-12-22T07:37:43;4.50;99.90
24176;DHT22;12324;48.146;11.502;2023-12-22T07:40:11;4.40;99.90
24176;DHT22;12324;48.146;11.502;2023-12-22T07:42:38;4.50;99.90
24176;DHT22;12324;48.146;11.502;2023-12-22T07:45:05;4.60;99.90
24176;DHT22;12324;48.146;11.502;2023-12-22T07:47:33;4.60;99.90
24176;DHT22;12324;48.146;11.502;2023-12-22T07:50:00;4.70;99.90
24176;DHT22;12324;48.146;11.502;2023-12-22T07:52:29;4.80;99.90
24176;DHT22;12324;48.146;11.502;2023-12-22T07:54:56;4.90;99.90
24176;DHT22;12324;48.146;11.502;2023-12-22T07:57:23;5.10;99.90
24176;DHT22;12324;48.146;11.502;2023-12-22T07:59:50;5.30;99.90
24176;DHT22;12324;48.146;11.502;2023-12-22T08:02:17;5.50;99.90
24176;DHT22;12324;48.146;11.502;2023-12-22T08:04:43;5.60;99.90
24176;DHT22;12324;48.146;11.502;2023-12-22T08:09:39;5.40;99.90
24176;DHT22;12324;48.146;11.502;2023-12-22T08:12:06;5.60;99.90
24176;DHT22;12324;48.146;11.502;2023-12-22T08:14:33;5.60;99.90
24176;DHT22;12324;48.146;11.502;2023-12-22T08:17:00;5.50;99.90
24176;DHT22;12324;48.146;11.502;2023-12-22T08:19:27;5.30;99.90
24176;DHT22;12324;48.146;11.502;2023-12-22T08:21:57;5.00;99.90
24176;DHT22;12324;48.146;11.502;2023-12-22T08:24:25;4.70;99.90
24176;DHT22;12324;48.146;11.502;2023-12-22T08:26:52;4.60;99.90
24176;DHT22;12324;48.146;11.502;2023-12-22T08:29:19;4.50;99.90
24176;DHT22;12324;48.146;11.502;2023-12-22T08:31:46;4.50;99.90
24176;DHT22;12324;48.146;11.502;2023-12-22T08:34:13;4.40;99.90
24176;DHT22;12324;48.146;11.502;2023-12-22T08:36:40;4.40;99.90
24176;DHT22;12324;48.146;11.502;2023-12-22T08:39:07;4.40;99.90
24176;DHT22;12324;48.146;11.502;2023-12-22T08:41:35;4.60;99.90
24176;DHT22;12324;48.146;11.502;2023-12-22T08:44:05;4.80;99.90
24176;DHT22;12324;48.146;11.502;2023-12-22T08:46:32;5.10;99.90
24176;DHT22;12324;48.146;11.502;2023-12-22T08:48:59;5.10;99.90
24176;DHT22;12324;48.146;11.502;2023-12-22T08:51:27;5.10;99.90
24176;DHT22;12324;48.146;11.502;2023-12-22T08:53:54;5.00;99.90
24176;DHT22;12324;48.146;11.502;2023-12-22T08:56:25;5.10;99.90
24176;DHT22;12324;48.146;11.502;2023-12-22T08:58:53;5.10;99.90
24176;DHT22;12324;48.146;11.502;2023-12-22T09:01:22;5.10;99.90
24176;DHT22;12324;48.146;11.502;2023-12-22T09:03:50;5.20;99.90
24176;DHT22;12324;48.146;11.502;2023-12-22T09:06:18;5.20;99.90
24176;DHT22;12324;48.146;11.502;2023-12-22T09:08:45;5.40;99.90
24176;DHT22;12324;48.146;11.502;2023-12-22T09:11:15;5.50;99.90
24176;DHT22;12324;48.146;11.502;2023-12-22T09:13:42;5.60;99.90
24176;DHT22;12324;48.146;11.502;2023-12-22T09:16:09;5.60;99.90
24176;DHT22;12324;48.146;11.502;2023-12-22T09:18:36;5.60;99.90
24176;DHT22;12324;48.146;11.502;2023-12-22T09:21:03;5.60;99.90
24176;DHT22;12324;48.146;11.502;2023-12-22T09:23:30;5.70;99.90
24176;DHT22;12324;48.146;11.502;2023-12-22T09:25:58;5.70;99.90
24176;DHT22;12324;48.146;11.502;2023-12-22T09:28:25;5.80;99.90
24176;DHT22;12324;48.146;11.502;2023-12-22T09:30:52;5.80;99.90
24176;DHT22;12324;48.146;11.502;2023-12-22T09:33:19;5.80;99.90
24176;DHT22;12324;48.146;11.502;2023-12-22T09:35:47;5.90;99.90
24176;DHT22;12324;48.146;11.502;2023-12-22T09:38:13;5.90;99.90
24176;DHT22;12324;48.146;11.502;2023-12-22T09:40:40;5.90;99.90
24176;DHT22;12324;48.146;11.502;2023-12-22T09:43:09;5.90;99.90
24176;DHT22;12324;48.146;11.502;2023-12-22T09:45:36;5.90;99.90
24176;DHT22;12324;48.146;11.502;2023-12-22T09:48:05;5.90;99.90
24176;DHT22;12324;48.146;11.502;2023-12-22T09:50:33;5.90;99.90
24176;DHT22;12324;48.146;11.502;2023-12-22T09:53:02;5.80;99.90
24176;DHT22;12324;48.146;11.502;2023-12-22T09:55:32;5.70;99.90
24176;DHT22;12324;48.146;11.502;2023-12-22T09:58:01;5.70;99.90
24176;DHT22;12324;48.146;11.502;2023-12-22T10:00:29;5.50;99.90
24176;DHT22;12324;48.146;11.502;2023-12-22T10:02:58;5.40;99.90
24176;DHT22;12324;48.146;11.502;2023-12-22T10:10:21;5.30;99.90
24176;DHT22;12324;48.146;11.502;2023-12-22T10:12:49;4.70;99.90
24176;DHT22;12324;48.146;11.502;2023-12-22T10:15:16;4.50;99.90
24176;DHT22;12324;48.146;11.502;2023-12-22T10:20:15;4.10;99.90
24176;DHT22;12324;48.146;11.502;2023-12-22T10:22:42;3.90;99.90
24176;DHT22;12324;48.146;11.502;2023-12-22T10:25:08;3.80;99.90
24176;DHT22;12324;48.146;11.502;2023-12-22T10:27:36;3.80;99.90
24176;DHT22;12324;48.146;11.502;2023-12-22T10:30:03;3.70;99.90
24176;DHT22;12324;48.146;11.502;2023-12-22T10:32:30;3.70;99.90
24176;DHT22;12324;48.146;11.502;2023-12-22T10:34:57;3.70;99.90
24176;DHT22;12324;48.146;11.502;2023-12-22T10:37:24;3.60;99.90
24176;DHT22;12324;48.146;11.502;2023-12-22T10:39:54;3.70;99.90
24176;DHT22;12324;48.146;11.502;2023-12-22T10:42:21;3.70;99.90
24176;DHT22;12324;48.146;11.502;2023-12-22T10:44:48;3.60;99.90
24176;DHT22;12324;48.146;11.502;2023-12-22T10:47:18;3.70;99.90
24176;DHT22;12324;48.146;11.502;2023-12-22T10:49:48;3.70;99.90
24176;DHT22;12324;48.146;11.502;2023-12-22T10:52:18;3.80;99.90
24176;DHT22;12324;48.146;11.502;2023-12-22T10:54:48;3.80;99.90
24176;DHT22;12324;48.146;11.502;2023-12-22T10:57:19;4.00;99.90
24176;DHT22;12324;48.146;11.502;2023-12-22T10:59:47;4.20;99.90
24176;DHT22;12324;48.146;11.502;2023-12-22T11:02:27;4.40;99.90
24176;DHT22;12324;48.146;11.502;2023-12-22T11:07:28;5.00;99.90
24176;DHT22;12324;48.146;11.502;2023-12-22T11:09:56;5.00;99.90
24176;DHT22;12324;48.146;11.502;2023-12-22T11:12:28;5.00;99.90
24176;DHT22;12324;48.146;11.502;2023-12-22T11:14:57;5.00;99.90
24176;DHT22;12324;48.146;11.502;2023-12-22T11:17:25;5.00;99.90
24176;DHT22;12324;48.146;11.502;2023-12-22T11:19:54;4.90;99.90
24176;DHT22;12324;48.146;11.502;2023-12-22T11:22:21;4.80;99.90
24176;DHT22;12324;48.146;11.502;2023-12-22T11:24:49;4.90;99.90
24176;DHT22;12324;48.146;11.502;2023-12-22T11:27:20;4.90;99.90
24176;DHT22;12324;48.146;11.502;2023-12-22T11:29:47;4.90;99.90
24176;DHT22;12324;48.146;11.502;2023-12-22T11:32:18;5.00;99.90
24176;DHT22;12324;48.146;11.502;2023-12-22T11:34:46;5.00;99.90
24176;DHT22;12324;48.146;11.502;2023-12-22T11:37:15;5.00;99.90
24176;DHT22;12324;48.146;11.502;2023-12-22T11:39:44;5.00;99.90
24176;DHT22;12324;48.146;11.502;2023-12-22T11:42:21;5.00;99.90
24176;DHT22;12324;48.146;11.502;2023-12-22T11:52:26;5.00;99.90
24176;DHT22;12324;48.146;11.502;2023-12-22T11:54:56;4.90;99.90
24176;DHT22;12324;48.146;11.502;2023-12-22T12:00:06;5.00;99.90
24176;DHT22;12324;48.146;11.502;2023-12-22T12:02:35;5.00;99.90
24176;DHT22;12324;48.146;11.502;2023-12-22T12:05:03;5.00;99.90
24176;DHT22;12324;48.146;11.502;2023-12-22T12:07:46;5.00;99.90
24176;DHT22;12324;48.146;11.502;2023-12-22T12:13:08;5.10;99.90
24176;DHT22;12324;48.146;11.502;2023-12-22T12:15:36;5.20;99.90
24176;DHT22;12324;48.146;11.502;2023-12-22T12:18:04;5.20;99.90
24176;DHT22;12324;48.146;11.502;2023-12-22T12:20:32;5.20;99.90
24176;DHT22;12324;48.146;11.502;2023-12-22T12:23:01;5.30;99.90
24176;DHT22;12324;48.146;11.502;2023-12-22T12:25:29;5.40;99.90
24176;DHT22;12324;48.146;11.502;2023-12-22T12:28:06;5.40;99.90
24176;DHT22;12324;48.146;11.502;2023-12-22T12:30:35;5.40;99.90
24176;DHT22;12324;48.146;11.502;2023-12-22T12:33:09;5.30;99.90
24176;DHT22;12324;48.146;11.502;2023-12-22T12:35:38;5.30;99.90
24176;DHT22;12324;48.146;11.502;2023-12-22T12:38:11;5.30;99.90
24176;DHT22;12324;48.146;11.502;2023-12-22T12:40:40;5.40;99.90
24176;DHT22;12324;48.146;11.502;2023-12-22T12:43:08;5.30;99.90
24176;DHT22;12324;48.146;11.502;2023-12-22T12:45:34;5.40;99.90
24176;DHT22;12324;48.146;11.502;2023-12-22T12:48:02;5.40;99.90
24176;DHT22;12324;48.146;11.502;2023-12-22T12:50:32;5.40;99.90
24176;DHT22;12324;48.146;11.502;2023-12-22T12:53:00;5.50;99.90
24176;DHT22;12324;48.146;11.502;2023-12-22T12:55:28;5.50;99.90
24176;DHT22;12324;48.146;11.502;2023-12-22T12:57:56;5.60;99.90
24176;DHT22;12324;48.146;11.502;2023-12-22T13:00:26;5.50;99.90
24176;DHT22;12324;48.146;11.502;2023-12-22T13:02:54;5.50;99.90
24176;DHT22;12324;48.146;11.502;2023-12-22T13:05:25;5.40;99.90
24176;DHT22;12324;48.146;11.502;2023-12-22T13:07:52;5.50;99.90
24176;DHT22;12324;48.146;11.502;2023-12-22T13:10:23;5.40;99.90
24176;DHT22;12324;48.146;11.502;2023-12-22T13:12:51;5.30;99.90
24176;DHT22;12324;48.146;11.502;2023-12-22T13:15:21;5.40;99.90
24176;DHT22;12324;48.146;11.502;2023-12-22T13:17:50;5.40;99.90
24176;DHT22;12324;48.146;11.502;2023-12-22T13:20:18;5.30;99.90
24176;DHT22;12324;48.146;11.502;2023-12-22T13:22:45;5.30;99.90
24176;DHT22;12324;48.146;11.502;2023-12-22T13:25:12;5.20;99.90
24176;DHT22;12324;48.146;11.502;2023-12-22T13:27:49;5.20;99.90
24176;DHT22;12324;48.146;11.502;2023-12-22T13:30:32;5.20;99.90
24176;DHT22;12324;48.146;11.502;2023-12-22T13:32:59;5.10;99.90
24176;DHT22;12324;48.146;11.502;2023-12-22T13:35:26;5.10;99.90
24176;DHT22;12324;48.146;11.502;2023-12-22T13:37:55;5.10;99.90
24176;DHT22;12324;48.146;11.502;2023-12-22T13:40:22;5.10;99.90
24176;DHT22;12324;48.146;11.502;2023-12-22T13:42:56;5.20;99.90
24176;DHT22;12324;48.146;11.502;2023-12-22T13:45:29;5.10;99.90
24176;DHT22;12324;48.146;11.502;2023-12-22T13:47:57;5.30;99.90
24176;DHT22;12324;48.146;11.502;2023-12-22T13:50:24;5.30;99.90
24176;DHT22;12324;48.146;11.502;2023-12-22T13:52:51;5.30;99.90
24176;DHT22;12324;48.146;11.502;2023-12-22T13:55:20;5.30;99.90
24176;DHT22;12324;48.146;11.502;2023-12-22T13:57:59;5.50;99.90
24176;DHT22;12324;48.146;11.502;2023-12-22T14:00:28;5.60;99.90
24176;DHT22;12324;48.146;11.502;2023-12-22T14:02:55;5.60;99.90
24176;DHT22;12324;48.146;11.502;2023-12-22T14:05:23;5.60;99.90
24176;DHT22;12324;48.146;11.502;2023-12-22T14:07:50;5.60;99.90
24176;DHT22;12324;48.146;11.502;2023-12-22T14:10:17;5.60;99.90
24176;DHT22;12324;48.146;11.502;2023-12-22T14:12:44;5.70;99.90
24176;DHT22;12324;48.146;11.502;2023-12-22T14:15:11;5.70;99.90
24176;DHT22;12324;48.146;11.502;2023-12-22T14:17:39;5.60;99.90
24176;DHT22;12324;48.146;11.502;2023-12-22T14:20:09;5.70;99.90
24176;DHT22;12324;48.146;11.502;2023-12-22T14:22:37;5.80;99.90
24176;DHT22;12324;48.146;11.502;2023-12-22T14:25:05;5.80;99.90
24176;DHT22;12324;48.146;11.502;2023-12-22T14:29:59;5.80;99.90
24176;DHT22;12324;48.146;11.502;2023-12-22T14:32:26;6.00;99.90
24176;DHT22;12324;48.146;11.502;2023-12-22T14:34:53;5.90;99.90
24176;DHT22;12324;48.146;11.502;2023-12-22T14:37:20;5.80;99.90
24176;DHT22;12324;48.146;11.502;2023-12-22T14:39:48;5.80;99.90
24176;DHT22;12324;48.146;11.502;2023-12-22T14:42:15;5.80;99.90
24176;DHT22;12324;48.146;11.502;2023-12-22T14:54:35;5.90;99.90
24176;DHT22;12324;48.146;11.502;2023-12-22T19:03:23;7.40;99.90
24176;DHT22;12324;48.146;11.502;2023-12-22T19:05:50;7.30;99.90
24176;DHT22;12324;48.146;11.502;2023-12-22T19:08:17;7.60;99.90
24176;DHT22;12324;48.146;11.502;2023-12-22T19:13:12;7.40;99.90
24176;DHT22;12324;48.146;11.502;2023-12-22T19:23:01;7.30;99.90
24176;DHT22;12324;48.146;11.502;2023-12-22T19:25:28;7.40;99.90
24176;DHT22;12324;48.146;11.502;2023-12-22T19:27:55;7.40;99.90
24176;DHT22;12324;48.146;11.502;2023-12-22T19:32:52;7.40;99.90
24176;DHT22;12324;48.146;11.502;2023-12-22T19:37:46;7.40;99.90
24176;DHT22;12324;48.146;11.502;2023-12-22T19:40:13;7.40;99.90
24176;DHT22;12324;48.146;11.502;2023-12-22T19:42:40;7.30;99.90
24176;DHT22;12324;48.146;11.502;2023-12-22T19:45:08;7.50;99.90
24176;DHT22;12324;48.146;11.502;2023-12-22T19:47:38;7.40;99.90
24176;DHT22;12324;48.146;11.502;2023-12-22T19:52:35;7.30;99.90
24176;DHT22;12324;48.146;11.502;2023-12-22T19:55:03;7.20;99.90
24176;DHT22;12324;48.146;11.502;2023-12-22T19:57:30;7.20;99.90
24176;DHT22;12324;48.146;11.502;2023-12-22T19:59:57;7.30;99.90
24176;DHT22;12324;48.146;11.502;2023-12-22T20:02:24;7.20;99.90
24176;DHT22;12324;48.146;11.502;2023-12-22T20:04:52;7.20;99.90
24176;DHT22;12324;48.146;11.502;2023-12-22T20:07:19;7.10;99.90
24176;DHT22;12324;48.146;11.502;2023-12-22T20:09:46;7.30;99.90
24176;DHT22;12324;48.146;11.502;2023-12-22T20:12:13;7.30;99.90
24176;DHT22;12324;48.146;11.502;2023-12-22T20:14:40;7.30;99.90
24176;DHT22;12324;48.146;11.502;2023-12-22T20:17:06;7.50;99.90
24176;DHT22;12324;48.146;11.502;2023-12-22T20:24:31;7.50;99.90
24176;DHT22;12324;48.146;11.502;2023-12-22T20:29:25;7.40;99.90
24176;DHT22;12324;48.146;11.502;2023-12-22T20:31:52;7.50;99.90
24176;DHT22;12324;48.146;11.502;2023-12-22T21:55:29;7.10;99.90
24176;DHT22;12324;48.146;11.502;2023-12-22T21:57:57;7.10;99.90
24176;DHT22;12324;48.146;11.502;2023-12-22T22:00:23;7.10;99.90
24176;DHT22;12324;48.146;11.502;2023-12-22T22:05:18;7.10;99.90
24176;DHT22;12324;48.146;11.502;2023-12-22T22:07:45;7.00;99.90
24176;DHT22;12324;48.146;11.502;2023-12-22T22:10:12;7.20;99.90
24176;DHT22;12324;48.146;11.502;2023-12-22T22:12:38;7.10;99.90
24176;DHT22;12324;48.146;11.502;2023-12-22T22:15:10;7.20;99.90
24176;DHT22;12324;48.146;11.502;2023-12-22T22:17:37;7.20;99.90
24176;DHT22;12324;48.146;11.502;2023-12-22T22:25:02;7.20;99.90
24176;DHT22;12324;48.146;11.502;2023-12-22T22:27:29;7.30;99.90
24176;DHT22;12324;48.146;11.502;2023-12-22T22:29:56;7.30;99.90
24176;DHT22;12324;48.146;11.502;2023-12-22T22:32:23;7.30;99.90
24176;DHT22;12324;48.146;11.502;2023-12-22T22:42:12;7.00;99.90
24176;DHT22;12324;48.146;11.502;2023-12-22T22:44:39;7.00;99.90
24176;DHT22;12324;48.146;11.502;2023-12-22T22:47:10;6.90;99.90
24176;DHT22;12324;48.146;11.502;2023-12-22T22:49:38;6.70;99.90
24176;DHT22;12324;48.146;11.502;2023-12-22T22:52:05;6.60;99.90
24176;DHT22;12324;48.146;11.502;2023-12-22T22:54:32;6.60;99.90
24176;DHT22;12324;48.146;11.502;2023-12-22T22:56:59;6.50;99.90
24176;DHT22;12324;48.146;11.502;2023-12-22T22:59:26;6.50;99.90
24176;DHT22;12324;48.146;11.502;2023-12-22T23:01:53;6.40;99.90
24176;DHT22;12324;48.146;11.502;2023-12-22T23:04:19;6.40;99.90
24176;DHT22;12324;48.146;11.502;2023-12-22T23:06:46;6.10;99.90
24176;DHT22;12324;48.146;11.502;2023-12-22T23:09:14;6.20;99.90
24176;DHT22;12324;48.146;11.502;2023-12-22T23:11:41;6.20;99.90
24176;DHT22;12324;48.146;11.502;2023-12-22T23:14:07;6.20;99.90
24176;DHT22;12324;48.146;11.502;2023-12-22T23:16:34;6.20;99.90